Terminal Aerodrome Forecast
Issued by NWS Sioux Falls, SD

Home | Current Version | Previous Version | Text Only | Print | Product List | Glossary On
Versions: 1 2 3 4 5 6 7 8 9 10 11 12 13 14 15 16
380
FTUS43 KFSD 241120
TAFHON
TAF
KHON 241120Z 2412/2512 07007KT P6SM OVC008
     FM241600 06009KT P6SM VCSH OVC008
     FM241800 06010KT 3SM -SN OVC008
     FM250000 02012KT 1 1/2SM -SN OVC008
     FM250300 36015G23KT 1SM -SN BLSN OVC003
     FM250600 36016G24KT 1 1/2SM BLSN OVC010
     FM251100 34017KT 2SM BLSN OVC008=

USA.gov is the U.S. government's official web portal to all federal, state and local government web resources and services.